createdAt,value
2017-04-16T00:00:17.538Z,15.51
2017-04-16T00:01:15.437Z,12.97
2017-04-16T00:02:13.362Z,12.90
2017-04-16T00:03:11.276Z,12.87
2017-04-16T00:04:09.193Z,13.23
2017-04-16T00:05:07.171Z,12.77
2017-04-16T00:06:05.026Z,13.00
2017-04-16T00:07:02.837Z,13.13
2017-04-16T00:08:00.651Z,14.00
2017-04-16T00:08:58.478Z,14.99
2017-04-16T00:09:56.493Z,11.01
2017-04-16T00:10:55.654Z,12.86
2017-04-16T00:11:53.595Z,14.23
2017-04-16T00:12:51.522Z,12.64
2017-04-16T00:13:49.656Z,12.27
2017-04-16T00:14:47.827Z,12.53
2017-04-16T00:15:45.845Z,11.87
2017-04-16T00:16:44.812Z,12.07
2017-04-16T00:17:43.031Z,13.19
2017-04-16T00:18:40.920Z,13.71
2017-04-16T00:19:39.421Z,11.66
2017-04-16T00:20:37.520Z,13.06
2017-04-16T00:21:36.092Z,13.57
2017-04-16T00:22:33.935Z,13.03
2017-04-16T00:23:32.361Z,13.01
2017-04-16T00:24:30.241Z,12.67
2017-04-16T00:25:28.119Z,14.09
2017-04-16T00:26:26.004Z,15.77
2017-04-16T00:27:24.347Z,15.46
2017-04-16T00:28:22.443Z,14.26
2017-04-16T00:29:20.285Z,14.63
2017-04-16T00:30:18.216Z,15.79
2017-04-16T00:31:16.100Z,16.33
2017-04-16T00:32:14.021Z,14.49
2017-04-16T00:33:11.947Z,14.46
2017-04-16T00:34:09.833Z,17.00
2017-04-16T00:35:07.721Z,17.91
2017-04-16T00:36:05.631Z,18.27
2017-04-16T00:37:03.677Z,17.87
2017-04-16T00:38:01.743Z,16.83
2017-04-16T00:39:00.504Z,16.47
2017-04-16T00:39:58.464Z,17.87
2017-04-16T00:40:57.033Z,17.03
2017-04-16T00:41:55.004Z,18.44
2017-04-16T00:42:53.623Z,16.96
2017-04-16T00:43:51.549Z,17.24
2017-04-16T00:44:50.819Z,17.36
2017-04-16T00:45:48.708Z,17.34
2017-04-16T00:46:46.587Z,16.51
2017-04-16T00:47:44.486Z,16.26
2017-04-16T00:48:42.441Z,18.28
2017-04-16T00:49:40.389Z,18.83
2017-04-16T00:50:38.300Z,17.91
2017-04-16T00:51:36.177Z,17.83
2017-04-16T00:52:34.081Z,16.11
2017-04-16T00:53:32.306Z,18.07
2017-04-16T00:54:30.145Z,18.34
2017-04-16T00:55:28.016Z,16.06
2017-04-16T00:56:25.878Z,17.80
2017-04-16T00:57:23.867Z,20.67
2017-04-16T00:58:21.754Z,18.84
2017-04-16T00:59:20.686Z,19.71
2017-04-16T01:00:19.680Z,16.64
2017-04-16T01:03:29.378Z,16.73
2017-04-16T01:04:27.254Z,15.46
2017-04-16T01:05:25.150Z,15.76
2017-04-16T01:06:23.219Z,15.51
2017-04-16T01:07:21.179Z,16.53
2017-04-16T01:08:19.091Z,17.06
2017-04-16T01:09:17.029Z,15.37
2017-04-16T01:10:14.956Z,17.30
2017-04-16T01:11:12.871Z,16.74
2017-04-16T01:12:10.836Z,16.31
2017-04-16T01:13:08.672Z,14.89
2017-04-16T01:14:06.485Z,16.00
2017-04-16T01:15:04.356Z,14.77
2017-04-16T01:16:02.179Z,15.87
2017-04-16T01:17:00.106Z,16.29
2017-04-16T01:17:57.972Z,15.94
2017-04-16T01:18:55.842Z,16.40
2017-04-16T01:19:53.723Z,17.28
2017-04-16T01:20:51.694Z,17.71
2017-04-16T01:21:49.719Z,17.27
2017-04-16T01:22:47.644Z,15.53
2017-04-16T01:23:45.735Z,15.91
2017-04-16T01:24:43.777Z,14.43
2017-04-16T01:25:41.659Z,14.39
2017-04-16T01:26:39.521Z,16.77
2017-04-16T01:27:37.464Z,17.84
2017-04-16T01:28:35.386Z,18.03
2017-04-16T01:29:33.327Z,16.86
2017-04-16T01:30:31.208Z,17.04
2017-04-16T01:31:30.434Z,16.70
2017-04-16T01:32:28.338Z,18.13
2017-04-16T01:33:26.227Z,18.36
2017-04-16T01:34:24.168Z,16.70
2017-04-16T01:35:22.037Z,17.09
2017-04-16T01:36:19.856Z,15.83
2017-04-16T01:37:17.730Z,16.63
2017-04-16T01:38:15.641Z,15.99
2017-04-16T01:39:14.259Z,14.50
2017-04-16T01:40:12.196Z,17.39
2017-04-16T01:41:10.564Z,14.37
2017-04-16T01:42:08.452Z,15.14
2017-04-16T01:43:06.359Z,15.26
2017-04-16T01:44:04.232Z,14.36
2017-04-16T01:45:02.185Z,13.94
2017-04-16T01:46:00.455Z,14.94
2017-04-16T01:46:58.348Z,15.04
2017-04-16T01:47:56.278Z,13.89
2017-04-16T01:48:54.166Z,15.60
2017-04-16T01:49:52.334Z,14.53
2017-04-16T01:50:50.239Z,15.30
2017-04-16T01:51:48.143Z,15.94
2017-04-16T01:52:45.976Z,15.03
2017-04-16T01:53:43.815Z,15.80
2017-04-16T01:54:41.721Z,16.00
2017-04-16T01:55:39.550Z,15.16
2017-04-16T01:56:37.359Z,14.47
2017-04-16T01:57:35.240Z,15.44
2017-04-16T01:58:33.491Z,15.43
2017-04-16T01:59:31.539Z,16.27
2017-04-16T02:00:29.424Z,14.04
2017-04-16T02:01:27.316Z,15.74
2017-04-16T02:02:25.232Z,15.09
2017-04-16T02:03:23.131Z,16.93
2017-04-16T02:04:21.052Z,14.52
2017-04-16T02:05:19.008Z,14.34
2017-04-16T02:06:16.869Z,15.10
2017-04-16T02:07:17.854Z,14.97
2017-04-16T02:08:15.713Z,13.96
2017-04-16T02:09:13.695Z,14.79
2017-04-16T02:10:11.598Z,15.41
2017-04-16T02:11:09.484Z,14.40
2017-04-16T02:12:07.383Z,13.29
2017-04-16T02:13:05.213Z,13.86
2017-04-16T02:14:03.044Z,13.79
2017-04-16T02:15:01.020Z,13.73
2017-04-16T02:15:58.897Z,13.16
2017-04-16T02:16:56.764Z,15.54
2017-04-16T02:17:54.652Z,15.40
2017-04-16T02:18:52.665Z,14.26
2017-04-16T02:19:50.639Z,12.77
2017-04-16T02:20:48.523Z,14.24
2017-04-16T02:21:46.421Z,13.51
2017-04-16T02:22:44.244Z,13.73
2017-04-16T02:23:42.223Z,14.19
2017-04-16T02:24:40.085Z,13.83
2017-04-16T02:25:38.176Z,15.67
2017-04-16T02:26:36.037Z,14.16
2017-04-16T02:27:33.900Z,15.26
2017-04-16T02:28:31.737Z,15.04
2017-04-16T02:29:29.692Z,14.02
2017-04-16T02:30:27.512Z,13.41
2017-04-16T02:31:25.383Z,12.57
2017-04-16T02:32:23.247Z,15.34
2017-04-16T02:33:21.063Z,15.09
2017-04-16T02:34:18.951Z,14.79
2017-04-16T02:35:16.902Z,15.43
2017-04-16T02:36:14.750Z,13.47
2017-04-16T02:37:12.642Z,13.77
2017-04-16T02:38:10.508Z,15.01
2017-04-16T02:39:08.424Z,14.60
2017-04-16T02:40:06.348Z,14.19
2017-04-16T02:41:04.224Z,15.30
2017-04-16T02:42:02.128Z,14.37
2017-04-16T02:42:59.973Z,13.06
2017-04-16T02:43:57.866Z,15.01
2017-04-16T02:44:55.762Z,15.64
2017-04-16T02:45:53.652Z,14.84
2017-04-16T02:46:51.569Z,14.40
2017-04-16T02:47:49.424Z,14.81
2017-04-16T02:48:47.256Z,14.66
2017-04-16T02:49:45.132Z,14.59
2017-04-16T02:50:43.240Z,15.10
2017-04-16T02:51:41.132Z,13.73
2017-04-16T02:52:38.996Z,14.44
2017-04-16T02:53:36.852Z,14.64
2017-04-16T02:54:34.739Z,15.57
2017-04-16T02:55:32.613Z,14.31
2017-04-16T02:56:30.486Z,14.35
2017-04-16T02:57:28.491Z,14.70
2017-04-16T02:58:26.337Z,13.90
2017-04-16T02:59:24.192Z,14.64
2017-04-16T03:00:22.105Z,14.80
2017-04-16T03:01:20.154Z,15.37
2017-04-16T03:02:18.213Z,15.21
2017-04-16T03:03:16.143Z,15.06
2017-04-16T03:04:13.983Z,13.71
2017-04-16T03:05:12.107Z,15.31
2017-04-16T03:06:09.964Z,15.18
2017-04-16T03:07:07.859Z,15.46
2017-04-16T03:08:05.773Z,15.44
2017-04-16T03:09:03.860Z,14.50
2017-04-16T03:10:01.689Z,13.99
2017-04-16T03:10:59.597Z,13.77
2017-04-16T03:11:57.413Z,15.61
2017-04-16T03:12:55.348Z,12.86
2017-04-16T03:13:53.189Z,14.91
2017-04-16T03:14:51.075Z,14.70
2017-04-16T03:15:48.994Z,14.01
2017-04-16T03:16:46.837Z,14.29
2017-04-16T03:17:44.659Z,14.01
2017-04-16T03:18:42.480Z,13.64
2017-04-16T03:19:40.423Z,15.71
2017-04-16T03:20:38.314Z,15.94
2017-04-16T03:21:36.184Z,14.37
2017-04-16T03:22:34.011Z,13.76
2017-04-16T03:23:31.853Z,13.77
2017-04-16T03:24:29.757Z,12.94
2017-04-16T03:25:27.640Z,14.09
2017-04-16T03:26:25.545Z,14.56
2017-04-16T03:27:23.485Z,13.91
2017-04-16T03:28:21.362Z,15.36
2017-04-16T03:29:19.204Z,13.04
2017-04-16T03:30:17.075Z,14.01
2017-04-16T03:31:14.896Z,13.47
2017-04-16T03:32:12.768Z,13.49
2017-04-16T03:33:10.600Z,12.83
2017-04-16T03:34:08.512Z,14.25
2017-04-16T03:35:06.424Z,12.97
2017-04-16T03:36:04.997Z,13.23
2017-04-16T03:37:02.852Z,13.53
2017-04-16T03:38:00.731Z,12.06
2017-04-16T03:38:58.637Z,11.67
2017-04-16T03:39:56.545Z,13.99
2017-04-16T03:40:54.475Z,12.47
2017-04-16T03:41:52.342Z,11.36
2017-04-16T03:42:50.235Z,12.50
2017-04-16T03:43:48.106Z,12.90
2017-04-16T03:44:45.983Z,12.24
2017-04-16T03:45:43.858Z,11.50
2017-04-16T03:46:41.771Z,11.66
2017-04-16T03:47:39.664Z,12.33
2017-04-16T03:48:37.532Z,14.00
2017-04-16T03:49:35.419Z,12.06
2017-04-16T03:50:33.289Z,12.01
2017-04-16T03:51:31.179Z,11.04
2017-04-16T03:52:29.059Z,12.07
2017-04-16T03:53:26.972Z,12.69
2017-04-16T03:54:25.202Z,12.96
2017-04-16T03:55:23.251Z,11.33
2017-04-16T03:56:21.147Z,11.49
2017-04-16T03:57:19.023Z,11.96
2017-04-16T03:58:16.916Z,11.17
2017-04-16T03:59:14.817Z,10.29
2017-04-16T04:00:12.726Z,11.86
2017-04-16T04:01:10.596Z,10.08
2017-04-16T04:02:08.481Z,10.13
2017-04-16T04:03:06.348Z,10.46
2017-04-16T04:04:04.242Z,11.80
2017-04-16T04:05:02.051Z,13.19
2017-04-16T04:05:59.996Z,11.23
2017-04-16T04:06:57.880Z,12.30
2017-04-16T04:07:55.869Z,12.81
2017-04-16T04:08:53.855Z,13.06
2017-04-16T04:09:51.841Z,12.13
2017-04-16T04:10:49.741Z,11.64
2017-04-16T04:11:47.698Z,11.61
2017-04-16T04:12:45.618Z,11.27
2017-04-16T04:13:43.447Z,12.50
2017-04-16T04:14:41.433Z,13.16
2017-04-16T04:15:39.505Z,12.30
2017-04-16T04:16:37.387Z,12.93
2017-04-16T04:17:35.301Z,12.66
2017-04-16T04:18:33.579Z,13.27
2017-04-16T04:19:31.460Z,14.81
2017-04-16T04:20:29.451Z,13.16
2017-04-16T04:21:27.754Z,13.30
2017-04-16T04:22:25.644Z,15.19
2017-04-16T04:23:23.536Z,12.56
2017-04-16T04:24:21.465Z,14.19
2017-04-16T04:25:19.281Z,13.09
2017-04-16T04:26:17.188Z,13.80
2017-04-16T04:27:15.109Z,13.51
2017-04-16T04:28:12.943Z,13.36
2017-04-16T04:29:10.852Z,13.90
2017-04-16T04:30:08.719Z,13.42
2017-04-16T04:31:06.632Z,13.90
2017-04-16T04:32:04.472Z,12.56
2017-04-16T04:33:02.317Z,13.32
2017-04-16T04:34:00.154Z,14.47
2017-04-16T04:34:58.037Z,14.08
2017-04-16T04:35:55.942Z,13.56
2017-04-16T04:36:53.845Z,15.34
2017-04-16T04:37:51.725Z,15.44
2017-04-16T04:38:49.647Z,16.78
2017-04-16T04:39:47.568Z,14.78
2017-04-16T04:40:45.465Z,15.64
2017-04-16T04:41:43.319Z,15.59
2017-04-16T04:42:41.257Z,15.23
2017-04-16T04:43:39.090Z,16.56
2017-04-16T04:44:36.968Z,16.35
2017-04-16T04:45:34.810Z,16.59
2017-04-16T04:46:32.721Z,15.93
2017-04-16T04:47:30.826Z,14.61
2017-04-16T04:48:28.732Z,15.76
2017-04-16T04:49:26.558Z,17.97
2017-04-16T04:50:24.645Z,16.59
2017-04-16T04:51:22.472Z,17.23
2017-04-16T04:52:20.412Z,17.51
2017-04-16T04:53:18.364Z,17.40
2017-04-16T04:54:16.187Z,19.07
2017-04-16T04:55:14.244Z,18.31
2017-04-16T04:56:12.424Z,18.06
2017-04-16T04:57:10.324Z,18.67
2017-04-16T04:58:08.240Z,19.23
2017-04-16T04:59:06.185Z,18.99
2017-04-16T05:00:04.135Z,18.13
2017-04-16T05:01:02.120Z,17.89
2017-04-16T05:02:00.011Z,19.73
2017-04-16T05:02:57.922Z,19.05
2017-04-16T05:03:55.787Z,18.70
2017-04-16T05:04:53.604Z,19.07
2017-04-16T05:05:51.500Z,19.69
2017-04-16T05:06:49.407Z,20.02
2017-04-16T05:07:47.292Z,18.60
2017-04-16T05:08:45.184Z,21.31
2017-04-16T05:09:43.124Z,18.89
2017-04-16T05:10:41.351Z,21.40
2017-04-16T05:11:39.256Z,18.86
2017-04-16T05:12:37.049Z,19.11
2017-04-16T05:13:34.952Z,20.37
2017-04-16T05:14:32.867Z,19.91
2017-04-16T05:15:30.715Z,19.87
2017-04-16T05:16:28.647Z,19.56
2017-04-16T05:17:26.508Z,20.27
2017-04-16T05:18:24.391Z,20.27
2017-04-16T05:19:22.237Z,18.87
2017-04-16T05:20:20.100Z,20.22
2017-04-16T05:21:18.030Z,18.73
2017-04-16T05:22:15.893Z,20.70
2017-04-16T05:23:13.804Z,21.63
2017-04-16T05:24:11.639Z,19.50
2017-04-16T05:25:09.512Z,19.47
2017-04-16T05:26:07.353Z,19.50
2017-04-16T05:27:05.253Z,20.07
2017-04-16T05:28:03.130Z,20.96
2017-04-16T05:29:01.269Z,18.99
2017-04-16T05:29:59.128Z,19.37
2017-04-16T05:30:57.085Z,21.09
2017-04-16T05:31:55.001Z,17.73
2017-04-16T05:32:52.900Z,19.73
2017-04-16T05:33:50.724Z,20.41
2017-04-16T05:34:48.636Z,18.91
2017-04-16T05:35:46.487Z,18.20
2017-04-16T05:36:44.360Z,18.09
2017-04-16T05:37:42.316Z,18.60
2017-04-16T05:38:40.381Z,19.33
2017-04-16T05:39:38.249Z,17.06
2017-04-16T05:40:36.095Z,18.97
2017-04-16T05:41:33.954Z,19.23
2017-04-16T05:42:31.808Z,17.97
2017-04-16T05:43:29.708Z,18.35
2017-04-16T05:44:27.594Z,20.03
2017-04-16T05:45:25.452Z,17.39
2017-04-16T05:46:23.515Z,19.89
2017-04-16T05:47:21.380Z,18.64
2017-04-16T05:48:19.276Z,19.80
2017-04-16T05:49:17.187Z,19.60
2017-04-16T05:50:15.061Z,20.29
2017-04-16T05:51:12.892Z,18.77
2017-04-16T05:52:10.772Z,17.31
2017-04-16T05:53:08.654Z,18.24
2017-04-16T05:54:06.593Z,17.67
2017-04-16T05:55:04.483Z,19.93
2017-04-16T05:56:02.357Z,18.51
2017-04-16T05:57:00.266Z,18.21
2017-04-16T05:57:58.229Z,18.03
2017-04-16T05:58:56.128Z,18.04
2017-04-16T05:59:53.974Z,17.47
2017-04-16T06:00:51.828Z,17.54
2017-04-16T06:01:49.729Z,16.57
2017-04-16T06:02:47.604Z,17.91
2017-04-16T06:03:45.589Z,17.57
2017-04-16T06:04:43.418Z,18.43
2017-04-16T06:05:41.297Z,16.80
2017-04-16T06:06:39.125Z,17.76
2017-04-16T06:07:36.964Z,18.00
2017-04-16T06:08:34.821Z,16.51
2017-04-16T06:09:32.756Z,18.44
2017-04-16T06:10:30.631Z,16.84
2017-04-16T06:11:28.524Z,17.46
2017-04-16T06:12:26.423Z,18.33
2017-04-16T06:13:24.280Z,17.61
2017-04-16T06:14:22.164Z,17.80
2017-04-16T06:15:20.096Z,16.04
2017-04-16T06:16:17.991Z,16.89
2017-04-16T06:17:16.061Z,18.31
2017-04-16T06:18:13.941Z,16.77
2017-04-16T06:19:11.828Z,16.96
2017-04-16T06:20:09.728Z,15.47
2017-04-16T06:21:07.616Z,16.14
2017-04-16T06:22:05.543Z,16.83
2017-04-16T06:23:03.660Z,16.49
2017-04-16T06:24:01.570Z,16.30
2017-04-16T06:24:59.531Z,16.84
2017-04-16T06:25:57.416Z,18.07
2017-04-16T06:26:55.356Z,17.43
2017-04-16T06:27:53.308Z,18.39
2017-04-16T06:28:51.206Z,18.13
2017-04-16T06:29:49.078Z,16.27
2017-04-16T06:30:47.353Z,18.07
2017-04-16T06:31:45.252Z,17.91
2017-04-16T06:32:43.116Z,15.96
2017-04-16T06:33:41.033Z,16.51
2017-04-16T06:34:38.902Z,15.84
2017-04-16T06:35:36.780Z,16.33
2017-04-16T06:36:34.641Z,15.83
2017-04-16T06:37:32.544Z,16.53
2017-04-16T06:38:31.361Z,16.60
2017-04-16T06:39:29.194Z,18.73
2017-04-16T06:40:27.047Z,17.13
2017-04-16T06:41:24.883Z,16.26
2017-04-16T06:42:22.727Z,15.67
2017-04-16T06:43:20.573Z,17.41
2017-04-16T06:44:18.431Z,15.87
2017-04-16T06:45:16.266Z,16.71
2017-04-16T06:46:14.105Z,16.83
2017-04-16T06:47:11.925Z,17.03
2017-04-16T06:48:09.831Z,15.36
2017-04-16T06:49:07.696Z,15.60
2017-04-16T06:50:05.531Z,16.40
2017-04-16T06:51:03.459Z,14.84
2017-04-16T06:52:01.331Z,16.69
2017-04-16T06:52:59.290Z,16.37
2017-04-16T06:53:57.140Z,16.61
2017-04-16T06:54:54.972Z,16.76
2017-04-16T06:55:52.916Z,16.39
2017-04-16T06:56:50.756Z,15.79
2017-04-16T06:57:48.631Z,14.59
2017-04-16T06:58:46.484Z,16.10
2017-04-16T06:59:44.440Z,15.94
2017-04-16T07:00:42.325Z,17.60
2017-04-16T07:01:40.183Z,16.57
2017-04-16T07:02:38.032Z,16.64
2017-04-16T07:03:38.765Z,16.43
2017-04-16T07:04:36.664Z,14.99
2017-04-16T07:05:35.308Z,14.66
2017-04-16T07:06:33.141Z,16.01
2017-04-16T07:07:30.996Z,16.33
2017-04-16T07:08:28.901Z,16.09
2017-04-16T07:09:26.701Z,16.00
2017-04-16T07:10:24.610Z,14.80
2017-04-16T07:11:22.439Z,15.71
2017-04-16T07:12:20.454Z,15.60
2017-04-16T07:13:18.302Z,15.93
2017-04-16T07:14:16.117Z,15.84
2017-04-16T07:15:14.008Z,16.90
2017-04-16T07:16:11.840Z,14.79
2017-04-16T07:17:09.832Z,16.71
2017-04-16T07:18:07.723Z,15.43
2017-04-16T07:19:05.549Z,16.30
2017-04-16T07:20:03.437Z,17.31
2017-04-16T07:21:01.296Z,15.44
2017-04-16T07:21:59.186Z,14.54
2017-04-16T07:22:57.101Z,15.40
2017-04-16T07:23:54.964Z,16.16
2017-04-16T07:24:52.797Z,14.93
2017-04-16T07:25:50.725Z,15.53
2017-04-16T07:26:48.566Z,16.26
2017-04-16T07:27:46.413Z,15.39
2017-04-16T07:28:46.475Z,16.11
2017-04-16T07:29:46.448Z,15.97
2017-04-16T07:30:49.076Z,15.36
2017-04-16T07:31:51.739Z,14.21
2017-04-16T07:32:51.706Z,14.89
2017-04-16T07:33:49.661Z,15.04
2017-04-16T07:34:47.589Z,14.89
2017-04-16T07:35:45.490Z,14.87
2017-04-16T07:36:43.312Z,14.54
2017-04-16T07:37:41.113Z,15.41
2017-04-16T07:38:39.072Z,14.46
2017-04-16T07:39:36.935Z,13.61
2017-04-16T07:40:34.858Z,14.50
2017-04-16T07:41:32.760Z,13.83
2017-04-16T07:42:30.614Z,13.44
2017-04-16T07:43:28.496Z,13.14
2017-04-16T07:44:26.454Z,13.84
2017-04-16T07:45:24.380Z,11.96
2017-04-16T07:46:22.306Z,11.66
2017-04-16T07:47:20.167Z,12.99
2017-04-16T07:48:18.107Z,13.81
2017-04-16T07:49:18.670Z,12.00
2017-04-16T07:50:16.492Z,13.53
2017-04-16T07:51:14.350Z,12.53
2017-04-16T07:52:12.216Z,13.97
2017-04-16T08:11:28.852Z,12.11
2017-04-16T08:12:27.027Z,11.89
2017-04-16T08:13:24.869Z,10.83
2017-04-16T08:14:22.744Z,12.06
2017-04-16T08:15:20.718Z,11.14
2017-04-16T08:16:18.644Z,11.43
2017-04-16T08:17:16.552Z,11.83
2017-04-16T08:18:14.389Z,12.43
2017-04-16T08:19:12.273Z,12.09
2017-04-16T08:20:10.265Z,12.73
2017-04-16T08:21:08.216Z,14.69
2017-04-16T08:22:06.474Z,13.87
2017-04-16T08:23:04.326Z,13.90
2017-04-16T08:24:04.036Z,14.20
2017-04-16T08:25:02.099Z,14.91
2017-04-16T08:25:59.956Z,13.21
2017-04-16T08:26:57.865Z,14.84
2017-04-16T08:27:55.906Z,14.14
2017-04-16T08:28:53.769Z,13.69
2017-04-16T08:29:51.593Z,15.36
2017-04-16T08:30:50.275Z,16.63
2017-04-16T08:31:48.108Z,16.89
2017-04-16T08:32:45.976Z,19.31
2017-04-16T08:33:43.844Z,20.03
2017-04-16T08:34:41.713Z,20.09
2017-04-16T08:35:39.603Z,21.51
2017-04-16T08:36:37.516Z,20.33
2017-04-16T08:37:35.367Z,20.53
2017-04-16T08:38:34.037Z,20.64
2017-04-16T08:39:31.884Z,19.26
2017-04-16T08:40:29.818Z,18.50
2017-04-16T08:41:27.683Z,19.03
2017-04-16T08:42:25.546Z,22.03
2017-04-16T08:43:23.412Z,20.54
2017-04-16T08:44:21.252Z,22.80
2017-04-16T08:45:19.074Z,21.13
2017-04-16T08:46:16.952Z,21.81
2017-04-16T08:47:14.815Z,21.86
2017-04-16T08:48:12.788Z,22.93
2017-04-16T08:49:10.603Z,24.19
2017-04-16T08:50:08.468Z,22.01
2017-04-16T08:51:06.328Z,21.04
2017-04-16T08:52:04.199Z,21.71
2017-04-16T08:53:02.205Z,22.20
2017-04-16T08:54:00.041Z,22.03
2017-04-16T08:54:58.021Z,22.56
2017-04-16T08:55:55.864Z,21.00
2017-04-16T08:56:53.756Z,21.53
2017-04-16T08:57:51.588Z,21.20
2017-04-16T08:58:49.404Z,22.93
2017-04-16T08:59:47.330Z,20.00
2017-04-16T09:00:45.156Z,18.04
2017-04-16T09:01:43.084Z,21.56
2017-04-16T09:02:40.966Z,21.33
2017-04-16T09:03:38.786Z,19.69
2017-04-16T09:04:36.691Z,21.17
2017-04-16T09:05:34.548Z,18.04
2017-04-16T09:06:32.508Z,18.84
2017-04-16T09:07:30.388Z,19.17
2017-04-16T09:08:28.357Z,18.24
2017-04-16T09:09:26.228Z,19.10
2017-04-16T09:10:24.059Z,16.04
2017-04-16T09:11:21.906Z,17.91
2017-04-16T09:12:19.780Z,19.91
2017-04-16T09:13:17.721Z,19.10
2017-04-16T09:14:15.585Z,17.87
2017-04-16T09:15:13.491Z,17.60
2017-04-16T09:16:11.341Z,17.49
2017-04-16T09:17:09.200Z,16.44
2017-04-16T09:18:07.100Z,14.87
2017-04-16T09:19:04.928Z,14.80
2017-04-16T09:20:02.869Z,15.23
2017-04-16T09:21:00.671Z,16.93
2017-04-16T09:21:58.637Z,13.61
2017-04-16T09:22:56.481Z,13.59
2017-04-16T09:23:54.336Z,11.87
2017-04-16T09:24:52.402Z,12.26
2017-04-16T09:25:50.268Z,12.90
2017-04-16T09:26:48.124Z,12.49
2017-04-16T09:27:45.963Z,12.74
2017-04-16T09:28:43.838Z,11.96
2017-04-16T09:29:41.726Z,11.69
2017-04-16T09:30:39.578Z,12.03
2017-04-16T09:31:37.465Z,11.64
2017-04-16T09:32:35.282Z,11.96
2017-04-16T09:33:33.206Z,11.01
2017-04-16T09:34:31.039Z,12.14
2017-04-16T09:35:28.992Z,11.56
2017-04-16T09:36:26.817Z,9.17
2017-04-16T09:37:24.657Z,8.60
2017-04-16T09:38:22.667Z,9.61
2017-04-16T09:39:20.529Z,9.61
2017-04-16T09:40:18.381Z,11.70
2017-04-16T09:41:16.282Z,10.36
2017-04-16T09:42:14.240Z,10.00
2017-04-16T09:43:12.077Z,10.23
2017-04-16T09:44:09.877Z,11.01
2017-04-16T09:45:07.804Z,9.60
2017-04-16T09:46:05.681Z,10.94
2017-04-16T09:47:03.613Z,10.63
2017-04-16T09:48:01.512Z,10.83
2017-04-16T09:48:59.404Z,10.64
2017-04-16T09:49:57.204Z,12.00
2017-04-16T09:50:55.061Z,9.99
2017-04-16T09:51:52.932Z,10.67
2017-04-16T09:52:50.793Z,11.00
2017-04-16T09:53:48.719Z,9.99
2017-04-16T09:54:46.587Z,10.41
2017-04-16T09:55:44.507Z,11.11
2017-04-16T09:56:42.371Z,10.34
2017-04-16T09:57:40.240Z,10.77
2017-04-16T09:58:38.114Z,8.76
2017-04-16T09:59:35.950Z,10.31
2017-04-16T10:00:33.849Z,9.71
2017-04-16T10:01:31.688Z,10.54
2017-04-16T10:02:29.808Z,9.77
2017-04-16T10:03:27.651Z,8.69
2017-04-16T10:04:25.485Z,10.20
2017-04-16T10:05:23.399Z,10.14
2017-04-16T10:06:21.253Z,11.60
2017-04-16T10:07:19.137Z,10.26
2017-04-16T10:08:16.959Z,9.81
2017-04-16T10:09:15.065Z,11.00
2017-04-16T10:10:12.912Z,10.20
2017-04-16T10:11:10.743Z,11.17
2017-04-16T10:12:08.569Z,10.67
2017-04-16T10:13:06.427Z,10.56
2017-04-16T10:14:04.371Z,11.21
2017-04-16T10:15:02.195Z,12.47
2017-04-16T10:16:00.216Z,11.73
2017-04-16T10:16:58.089Z,11.43
2017-04-16T10:17:55.970Z,11.44
2017-04-16T10:18:53.836Z,11.60
2017-04-16T10:19:51.680Z,13.41
2017-04-16T10:20:49.559Z,12.81
2017-04-16T10:21:47.396Z,12.94
2017-04-16T10:22:45.324Z,12.46
2017-04-16T10:23:43.164Z,12.56
2017-04-16T10:24:40.987Z,12.17
2017-04-16T10:25:38.860Z,13.23
2017-04-16T10:26:36.695Z,13.30
2017-04-16T10:27:34.597Z,12.49
2017-04-16T10:28:32.443Z,12.06
2017-04-16T10:29:30.381Z,12.29
2017-04-16T10:30:28.244Z,12.03
2017-04-16T10:31:28.399Z,12.36
2017-04-16T10:32:26.382Z,11.36
2017-04-16T10:33:24.268Z,11.29
2017-04-16T10:34:22.222Z,12.41
2017-04-16T10:35:20.123Z,20.49
2017-04-16T10:36:17.949Z,18.53
2017-04-16T10:37:15.776Z,14.66
2017-04-16T10:38:13.625Z,13.09
2017-04-16T10:39:11.497Z,11.60
2017-04-16T10:40:09.324Z,12.59
2017-04-16T10:41:07.157Z,11.10
2017-04-16T10:42:05.030Z,11.80
2017-04-16T10:43:02.953Z,13.49
2017-04-16T10:44:00.803Z,11.26
2017-04-16T10:44:58.634Z,13.41
2017-04-16T10:45:56.501Z,12.91
2017-04-16T10:46:54.381Z,11.57
2017-04-16T10:47:52.250Z,13.31
2017-04-16T10:48:50.198Z,13.67
2017-04-16T10:49:48.029Z,13.01
2017-04-16T10:50:45.932Z,13.63
2017-04-16T10:51:44.576Z,13.04
2017-04-16T10:52:42.413Z,11.06
2017-04-16T10:53:40.248Z,7.89
2017-04-16T10:54:38.114Z,7.73
2017-04-16T10:55:36.052Z,6.97
2017-04-16T10:56:33.943Z,4.66
2017-04-16T10:57:32.131Z,4.54
2017-04-16T10:58:29.953Z,7.03
2017-04-16T10:59:27.779Z,3.76
2017-04-16T11:00:25.855Z,2.81
2017-04-16T11:01:23.691Z,5.54
2017-04-16T11:02:21.517Z,3.93
2017-04-16T11:03:19.716Z,4.03
2017-04-16T11:04:17.569Z,5.24
2017-04-16T11:05:15.539Z,4.64
2017-04-16T11:06:13.387Z,4.70
2017-04-16T11:07:11.312Z,4.59
2017-04-16T11:08:09.149Z,3.80
2017-04-16T11:09:07.149Z,4.24
2017-04-16T11:10:05.018Z,4.50
2017-04-16T11:11:02.869Z,4.43
2017-04-16T11:12:00.823Z,3.47
2017-04-16T11:12:58.668Z,3.94
2017-04-16T11:13:56.552Z,4.67
2017-04-16T11:14:54.388Z,3.94
2017-04-16T11:15:52.353Z,3.66
2017-04-16T11:16:50.203Z,4.27
2017-04-16T11:17:48.048Z,4.91
2017-04-16T11:18:45.919Z,3.79
2017-04-16T11:19:43.738Z,3.27
2017-04-16T11:20:41.704Z,3.26
2017-04-16T11:21:39.559Z,3.56
2017-04-16T11:22:37.484Z,2.99
2017-04-16T11:23:35.364Z,3.34
2017-04-16T11:24:33.213Z,3.76
2017-04-16T11:25:31.057Z,2.49
2017-04-16T11:26:28.883Z,2.94
2017-04-16T11:27:26.887Z,2.87
2017-04-16T11:28:24.740Z,2.89
2017-04-16T11:29:22.564Z,3.69
2017-04-16T11:30:20.485Z,3.21
2017-04-16T11:31:18.372Z,2.77
2017-04-16T11:32:16.305Z,4.51
2017-04-16T11:33:14.269Z,4.24
2017-04-16T11:34:12.116Z,4.17
2017-04-16T11:35:10.002Z,4.10
2017-04-16T11:36:07.836Z,3.77
2017-04-16T11:37:05.694Z,4.01
2017-04-16T11:38:03.555Z,4.67
2017-04-16T11:39:01.359Z,3.84
2017-04-16T11:39:59.241Z,3.86
2017-04-16T11:40:57.160Z,5.29
2017-04-16T11:41:55.021Z,4.93
2017-04-16T11:42:52.931Z,5.14
2017-04-16T11:43:50.764Z,5.60
2017-04-16T11:44:48.645Z,5.90
2017-04-16T11:45:46.546Z,4.91
2017-04-16T11:46:44.384Z,5.49
2017-04-16T11:47:42.209Z,5.76
2017-04-16T11:48:40.013Z,4.87
2017-04-16T11:49:37.864Z,5.51
2017-04-16T11:50:35.707Z,5.47
2017-04-16T11:51:33.562Z,5.19
2017-04-16T11:52:31.556Z,4.89
2017-04-16T11:53:29.399Z,4.89
2017-04-16T11:54:27.377Z,5.21
2017-04-16T11:55:25.265Z,4.66
2017-04-16T11:56:23.261Z,5.41
2017-04-16T11:57:21.205Z,4.89
2017-04-16T11:58:19.070Z,4.53
2017-04-16T11:59:16.940Z,4.17
2017-04-16T12:00:14.958Z,4.81
2017-04-16T12:01:12.784Z,4.54
2017-04-16T12:02:10.634Z,4.54
2017-04-16T12:03:08.482Z,5.09
2017-04-16T12:04:06.348Z,5.24
2017-04-16T12:05:04.175Z,4.89
2017-04-16T12:06:01.998Z,4.59
2017-04-16T12:06:59.853Z,4.37
2017-04-16T12:07:57.744Z,4.54
2017-04-16T12:08:55.570Z,4.76
2017-04-16T12:09:53.420Z,4.64
2017-04-16T12:10:51.349Z,3.73
2017-04-16T12:11:49.228Z,4.39
2017-04-16T12:12:47.080Z,4.01
2017-04-16T12:13:44.918Z,4.66
2017-04-16T12:14:42.791Z,4.26
2017-04-16T12:15:40.707Z,3.61
2017-04-16T12:16:38.548Z,3.99
2017-04-16T12:17:36.457Z,3.77
2017-04-16T12:18:34.371Z,4.73
2017-04-16T12:19:32.241Z,3.90
2017-04-16T12:20:30.096Z,4.33
2017-04-16T12:21:27.994Z,3.31
2017-04-16T12:22:25.830Z,4.71
2017-04-16T12:23:23.801Z,3.97
2017-04-16T12:24:21.744Z,4.43
2017-04-16T12:25:19.576Z,4.29
2017-04-16T12:26:17.412Z,4.14
2017-04-16T12:27:15.290Z,3.99
2017-04-16T12:28:13.244Z,3.87
2017-04-16T12:29:11.106Z,3.87
2017-04-16T12:30:09.001Z,5.20
2017-04-16T12:31:06.934Z,3.66
2017-04-16T12:32:04.821Z,3.99
2017-04-16T12:33:02.878Z,3.56
2017-04-16T12:34:00.854Z,3.73
2017-04-16T12:34:58.850Z,3.66
2017-04-16T12:35:56.754Z,3.69
2017-04-16T12:36:54.628Z,4.00
2017-04-16T12:37:52.479Z,3.51
2017-04-16T12:38:50.327Z,3.33
2017-04-16T12:39:48.206Z,3.71
2017-04-16T12:40:46.069Z,3.83
2017-04-16T12:41:44.832Z,3.41
2017-04-16T12:42:42.720Z,3.54
2017-04-16T12:43:40.709Z,3.74
2017-04-16T12:44:39.081Z,3.03
2017-04-16T12:45:36.965Z,4.16
2017-04-16T12:46:34.856Z,3.49
2017-04-16T12:47:32.727Z,3.06
2017-04-16T12:48:30.621Z,3.11
2017-04-16T12:49:28.509Z,3.47
2017-04-16T12:50:27.617Z,3.81
2017-04-16T12:51:25.570Z,3.53